sensor_id;sensor_type;location;lat;lon;timestamp;temperature;humidity
18189;DHT22;9219;50.396;8.546;2022-10-16T00:00:35;16.90;99.90
18189;DHT22;9219;50.396;8.546;2022-10-16T00:03:04;16.80;99.90
18189;DHT22;9219;50.396;8.546;2022-10-16T00:05:38;16.70;99.90
18189;DHT22;9219;50.396;8.546;2022-10-16T00:08:06;16.80;99.90
18189;DHT22;9219;50.396;8.546;2022-10-16T00:10:34;16.70;99.90
18189;DHT22;9219;50.396;8.546;2022-10-16T00:13:02;16.70;99.90
18189;DHT22;9219;50.396;8.546;2022-10-16T00:15:39;16.70;99.90
18189;DHT22;9219;50.396;8.546;2022-10-16T00:18:14;16.60;99.90
18189;DHT22;9219;50.396;8.546;2022-10-16T00:28:20;16.60;99.90
18189;DHT22;9219;50.396;8.546;2022-10-16T00:30:48;16.80;99.90
18189;DHT22;9219;50.396;8.546;2022-10-16T00:33:16;16.70;99.90
18189;DHT22;9219;50.396;8.546;2022-10-16T00:35:43;16.60;99.90
18189;DHT22;9219;50.396;8.546;2022-10-16T00:38:11;16.60;99.90
18189;DHT22;9219;50.396;8.546;2022-10-16T00:40:39;16.60;99.90
18189;DHT22;9219;50.396;8.546;2022-10-16T00:43:12;16.60;99.90
18189;DHT22;9219;50.396;8.546;2022-10-16T00:45:42;16.60;99.90
18189;DHT22;9219;50.396;8.546;2022-10-16T00:48:13;16.70;99.90
18189;DHT22;9219;50.396;8.546;2022-10-16T00:56:00;16.60;99.90
18189;DHT22;9219;50.396;8.546;2022-10-16T00:58:30;16.50;99.90
18189;DHT22;9219;50.396;8.546;2022-10-16T01:00:58;16.50;99.90
18189;DHT22;9219;50.396;8.546;2022-10-16T01:03:28;16.60;99.90
18189;DHT22;9219;50.396;8.546;2022-10-16T01:06:09;16.50;99.90
18189;DHT22;9219;50.396;8.546;2022-10-16T01:08:47;16.40;99.90
18189;DHT22;9219;50.396;8.546;2022-10-16T01:11:22;16.60;99.90
18189;DHT22;9219;50.396;8.546;2022-10-16T01:18:54;16.30;99.90
18189;DHT22;9219;50.396;8.546;2022-10-16T01:21:28;16.20;99.90
18189;DHT22;9219;50.396;8.546;2022-10-16T01:24:02;16.30;99.90
18189;DHT22;9219;50.396;8.546;2022-10-16T01:26:40;16.30;99.90
18189;DHT22;9219;50.396;8.546;2022-10-16T01:29:16;16.50;99.90
18189;DHT22;9219;50.396;8.546;2022-10-16T01:31:48;16.50;99.90
18189;DHT22;9219;50.396;8.546;2022-10-16T01:34:25;16.50;99.90
18189;DHT22;9219;50.396;8.546;2022-10-16T01:42:03;16.60;99.90
18189;DHT22;9219;50.396;8.546;2022-10-16T01:44:33;16.50;99.90
18189;DHT22;9219;50.396;8.546;2022-10-16T01:47:03;16.40;99.90
18189;DHT22;9219;50.396;8.546;2022-10-16T01:49:33;16.30;99.90
18189;DHT22;9219;50.396;8.546;2022-10-16T01:52:05;16.40;99.90
18189;DHT22;9219;50.396;8.546;2022-10-16T01:54:35;16.40;99.90
18189;DHT22;9219;50.396;8.546;2022-10-16T01:57:04;16.40;99.90
18189;DHT22;9219;50.396;8.546;2022-10-16T02:04:42;16.50;99.90
18189;DHT22;9219;50.396;8.546;2022-10-16T02:07:11;16.40;99.90
18189;DHT22;9219;50.396;8.546;2022-10-16T02:09:41;16.40;99.90
18189;DHT22;9219;50.396;8.546;2022-10-16T02:12:13;16.40;99.90
18189;DHT22;9219;50.396;8.546;2022-10-16T02:14:42;16.40;99.90
18189;DHT22;9219;50.396;8.546;2022-10-16T02:17:11;16.40;99.90
18189;DHT22;9219;50.396;8.546;2022-10-16T02:19:40;16.50;99.90
18189;DHT22;9219;50.396;8.546;2022-10-16T02:25:17;16.50;99.90
18189;DHT22;9219;50.396;8.546;2022-10-16T02:27:52;16.50;99.90
18189;DHT22;9219;50.396;8.546;2022-10-16T02:30:26;16.50;99.90
18189;DHT22;9219;50.396;8.546;2022-10-16T02:32:56;16.50;99.90
18189;DHT22;9219;50.396;8.546;2022-10-16T02:35:30;16.50;99.90
18189;DHT22;9219;50.396;8.546;2022-10-16T02:37:59;16.50;99.90
18189;DHT22;9219;50.396;8.546;2022-10-16T02:40:28;16.50;99.90
18189;DHT22;9219;50.396;8.546;2022-10-16T02:45:50;16.60;99.90
18189;DHT22;9219;50.396;8.546;2022-10-16T02:48:18;16.40;99.90
18189;DHT22;9219;50.396;8.546;2022-10-16T02:50:45;16.50;99.90
18189;DHT22;9219;50.396;8.546;2022-10-16T02:53:12;16.40;99.90
18189;DHT22;9219;50.396;8.546;2022-10-16T02:55:39;16.50;99.90
18189;DHT22;9219;50.396;8.546;2022-10-16T02:58:09;16.40;99.90
18189;DHT22;9219;50.396;8.546;2022-10-16T03:00:37;16.40;99.90
18189;DHT22;9219;50.396;8.546;2022-10-16T03:06:09;16.30;99.90
18189;DHT22;9219;50.396;8.546;2022-10-16T03:08:38;16.30;99.90
18189;DHT22;9219;50.396;8.546;2022-10-16T03:11:05;16.40;99.90
18189;DHT22;9219;50.396;8.546;2022-10-16T03:13:33;16.40;99.90
18189;DHT22;9219;50.396;8.546;2022-10-16T03:16:01;16.30;99.90
18189;DHT22;9219;50.396;8.546;2022-10-16T03:18:29;16.30;99.90
18189;DHT22;9219;50.396;8.546;2022-10-16T03:20:57;16.20;99.90
18189;DHT22;9219;50.396;8.546;2022-10-16T03:29:19;16.10;99.90
18189;DHT22;9219;50.396;8.546;2022-10-16T03:31:46;16.20;99.90
18189;DHT22;9219;50.396;8.546;2022-10-16T03:34:16;16.20;99.90
18189;DHT22;9219;50.396;8.546;2022-10-16T03:36:43;16.10;99.90
18189;DHT22;9219;50.396;8.546;2022-10-16T03:39:11;16.10;99.90
18189;DHT22;9219;50.396;8.546;2022-10-16T03:41:38;16.00;99.90
18189;DHT22;9219;50.396;8.546;2022-10-16T03:44:07;16.00;99.90
18189;DHT22;9219;50.396;8.546;2022-10-16T03:46:36;16.00;99.90
18189;DHT22;9219;50.396;8.546;2022-10-16T03:57:02;16.10;99.90
18189;DHT22;9219;50.396;8.546;2022-10-16T03:59:40;16.10;99.90
18189;DHT22;9219;50.396;8.546;2022-10-16T04:02:08;16.00;99.90
18189;DHT22;9219;50.396;8.546;2022-10-16T04:04:35;16.00;99.90
18189;DHT22;9219;50.396;8.546;2022-10-16T04:07:03;16.00;99.90
18189;DHT22;9219;50.396;8.546;2022-10-16T04:09:35;15.80;99.90
18189;DHT22;9219;50.396;8.546;2022-10-16T04:12:04;15.80;99.90
18189;DHT22;9219;50.396;8.546;2022-10-16T04:14:32;15.70;99.90
18189;DHT22;9219;50.396;8.546;2022-10-16T04:22:07;15.70;99.90
18189;DHT22;9219;50.396;8.546;2022-10-16T04:24:34;15.80;99.90
18189;DHT22;9219;50.396;8.546;2022-10-16T04:27:02;15.80;99.90
18189;DHT22;9219;50.396;8.546;2022-10-16T04:29:30;15.70;99.90
18189;DHT22;9219;50.396;8.546;2022-10-16T04:31:58;15.60;99.90
18189;DHT22;9219;50.396;8.546;2022-10-16T04:34:27;15.80;99.90
18189;DHT22;9219;50.396;8.546;2022-10-16T04:36:54;15.80;99.90
18189;DHT22;9219;50.396;8.546;2022-10-16T04:42:03;15.70;99.90
18189;DHT22;9219;50.396;8.546;2022-10-16T04:44:34;15.90;99.90
18189;DHT22;9219;50.396;8.546;2022-10-16T04:47:02;16.00;99.90
18189;DHT22;9219;50.396;8.546;2022-10-16T04:49:31;16.00;99.90
18189;DHT22;9219;50.396;8.546;2022-10-16T04:51:58;16.10;99.90
18189;DHT22;9219;50.396;8.546;2022-10-16T04:54:26;16.10;99.90
18189;DHT22;9219;50.396;8.546;2022-10-16T04:57:00;16.10;99.90
18189;DHT22;9219;50.396;8.546;2022-10-16T05:02:22;16.10;99.90
18189;DHT22;9219;50.396;8.546;2022-10-16T05:04:50;15.90;99.90
18189;DHT22;9219;50.396;8.546;2022-10-16T05:07:20;15.90;99.90
18189;DHT22;9219;50.396;8.546;2022-10-16T05:09:50;15.90;99.90
18189;DHT22;9219;50.396;8.546;2022-10-16T05:12:17;15.90;99.90
18189;DHT22;9219;50.396;8.546;2022-10-16T05:14:44;15.90;99.90
18189;DHT22;9219;50.396;8.546;2022-10-16T05:17:12;15.80;99.90
18189;DHT22;9219;50.396;8.546;2022-10-16T05:23:43;15.90;99.90
18189;DHT22;9219;50.396;8.546;2022-10-16T05:26:11;15.80;99.90
18189;DHT22;9219;50.396;8.546;2022-10-16T05:28:38;15.70;99.90
18189;DHT22;9219;50.396;8.546;2022-10-16T05:31:06;15.70;99.90
18189;DHT22;9219;50.396;8.546;2022-10-16T05:33:34;15.70;99.90
18189;DHT22;9219;50.396;8.546;2022-10-16T05:36:04;15.70;99.90
18189;DHT22;9219;50.396;8.546;2022-10-16T05:38:33;15.80;99.90
18189;DHT22;9219;50.396;8.546;2022-10-16T05:46:10;15.80;99.90
18189;DHT22;9219;50.396;8.546;2022-10-16T05:48:46;15.90;99.90
18189;DHT22;9219;50.396;8.546;2022-10-16T05:51:14;15.90;99.90
18189;DHT22;9219;50.396;8.546;2022-10-16T05:53:42;16.00;99.90
18189;DHT22;9219;50.396;8.546;2022-10-16T05:56:15;16.00;99.90
18189;DHT22;9219;50.396;8.546;2022-10-16T05:58:43;16.00;99.90
18189;DHT22;9219;50.396;8.546;2022-10-16T06:01:15;16.00;99.90
18189;DHT22;9219;50.396;8.546;2022-10-16T06:03:44;16.00;99.90
18189;DHT22;9219;50.396;8.546;2022-10-16T06:11:18;16.00;99.90
18189;DHT22;9219;50.396;8.546;2022-10-16T06:13:49;16.10;99.90
18189;DHT22;9219;50.396;8.546;2022-10-16T06:16:18;16.00;99.90
18189;DHT22;9219;50.396;8.546;2022-10-16T06:18:45;16.10;99.90
18189;DHT22;9219;50.396;8.546;2022-10-16T06:21:17;16.00;99.90
18189;DHT22;9219;50.396;8.546;2022-10-16T06:23:46;16.00;99.90
18189;DHT22;9219;50.396;8.546;2022-10-16T06:26:17;16.10;99.90
18189;DHT22;9219;50.396;8.546;2022-10-16T06:28:54;16.10;99.90
18189;DHT22;9219;50.396;8.546;2022-10-16T06:36:28;16.10;99.90
18189;DHT22;9219;50.396;8.546;2022-10-16T06:38:55;16.10;99.90
18189;DHT22;9219;50.396;8.546;2022-10-16T06:41:23;16.10;99.90
18189;DHT22;9219;50.396;8.546;2022-10-16T06:43:51;16.10;99.90
18189;DHT22;9219;50.396;8.546;2022-10-16T06:46:23;16.00;99.90
18189;DHT22;9219;50.396;8.546;2022-10-16T06:48:53;16.00;99.90
18189;DHT22;9219;50.396;8.546;2022-10-16T06:51:23;16.00;99.90
18189;DHT22;9219;50.396;8.546;2022-10-16T06:56:32;15.90;99.90
18189;DHT22;9219;50.396;8.546;2022-10-16T06:59:00;16.00;99.90
18189;DHT22;9219;50.396;8.546;2022-10-16T07:01:28;16.10;99.90
18189;DHT22;9219;50.396;8.546;2022-10-16T07:03:56;16.20;99.90
18189;DHT22;9219;50.396;8.546;2022-10-16T07:06:26;16.30;99.90
18189;DHT22;9219;50.396;8.546;2022-10-16T07:08:54;16.30;99.90
18189;DHT22;9219;50.396;8.546;2022-10-16T07:11:23;16.30;99.90
18189;DHT22;9219;50.396;8.546;2022-10-16T07:13:52;16.40;99.90
18189;DHT22;9219;50.396;8.546;2022-10-16T07:16:54;16.50;99.90
18189;DHT22;9219;50.396;8.546;2022-10-16T07:19:23;16.40;99.90
18189;DHT22;9219;50.396;8.546;2022-10-16T07:21:53;16.40;99.90
18189;DHT22;9219;50.396;8.546;2022-10-16T07:24:20;16.30;99.90
18189;DHT22;9219;50.396;8.546;2022-10-16T07:26:48;16.30;99.90
18189;DHT22;9219;50.396;8.546;2022-10-16T07:29:17;16.40;99.90
18189;DHT22;9219;50.396;8.546;2022-10-16T07:31:45;16.30;99.90
18189;DHT22;9219;50.396;8.546;2022-10-16T07:39:15;16.40;99.90
18189;DHT22;9219;50.396;8.546;2022-10-16T07:41:42;16.40;99.90
18189;DHT22;9219;50.396;8.546;2022-10-16T07:44:12;16.40;99.90
18189;DHT22;9219;50.396;8.546;2022-10-16T07:46:40;16.40;99.90
18189;DHT22;9219;50.396;8.546;2022-10-16T07:49:08;16.50;99.90
18189;DHT22;9219;50.396;8.546;2022-10-16T07:51:36;16.70;99.90
18189;DHT22;9219;50.396;8.546;2022-10-16T07:54:08;16.60;99.90
18189;DHT22;9219;50.396;8.546;2022-10-16T07:59:17;16.90;99.90
18189;DHT22;9219;50.396;8.546;2022-10-16T08:01:45;17.00;99.90
18189;DHT22;9219;50.396;8.546;2022-10-16T08:04:12;17.00;99.90
18189;DHT22;9219;50.396;8.546;2022-10-16T08:06:40;17.00;99.90
18189;DHT22;9219;50.396;8.546;2022-10-16T08:09:08;17.00;99.90
18189;DHT22;9219;50.396;8.546;2022-10-16T08:11:35;17.00;99.90
18189;DHT22;9219;50.396;8.546;2022-10-16T08:14:03;17.00;99.90
18189;DHT22;9219;50.396;8.546;2022-10-16T08:16:33;17.00;99.90
18189;DHT22;9219;50.396;8.546;2022-10-16T08:24:06;17.10;99.90
18189;DHT22;9219;50.396;8.546;2022-10-16T08:26:37;17.00;99.90
18189;DHT22;9219;50.396;8.546;2022-10-16T08:29:05;17.00;99.90
18189;DHT22;9219;50.396;8.546;2022-10-16T08:31:34;17.00;99.90
18189;DHT22;9219;50.396;8.546;2022-10-16T08:34:02;17.00;99.90
18189;DHT22;9219;50.396;8.546;2022-10-16T08:36:33;17.00;99.90
18189;DHT22;9219;50.396;8.546;2022-10-16T08:39:02;17.00;99.90
18189;DHT22;9219;50.396;8.546;2022-10-16T08:46:54;17.00;99.90
18189;DHT22;9219;50.396;8.546;2022-10-16T08:49:27;17.10;99.90
18189;DHT22;9219;50.396;8.546;2022-10-16T08:51:58;17.10;99.90
18189;DHT22;9219;50.396;8.546;2022-10-16T08:54:29;17.20;99.90
18189;DHT22;9219;50.396;8.546;2022-10-16T08:57:09;17.20;99.90
18189;DHT22;9219;50.396;8.546;2022-10-16T08:59:48;17.20;99.90
18189;DHT22;9219;50.396;8.546;2022-10-16T09:02:26;17.30;99.90
18189;DHT22;9219;50.396;8.546;2022-10-16T09:05:21;17.50;99.90
18189;DHT22;9219;50.396;8.546;2022-10-16T09:08:00;17.60;99.90
18189;DHT22;9219;50.396;8.546;2022-10-16T09:15:53;17.90;99.90
18189;DHT22;9219;50.396;8.546;2022-10-16T09:18:28;17.70;99.90
18189;DHT22;9219;50.396;8.546;2022-10-16T09:21:04;17.90;99.90
18189;DHT22;9219;50.396;8.546;2022-10-16T09:23:37;18.10;99.90
18189;DHT22;9219;50.396;8.546;2022-10-16T09:28:39;18.40;99.90
18189;DHT22;9219;50.396;8.546;2022-10-16T09:31:14;18.50;99.90
18189;DHT22;9219;50.396;8.546;2022-10-16T09:39:15;18.50;99.90
18189;DHT22;9219;50.396;8.546;2022-10-16T09:41:45;18.60;99.90
18189;DHT22;9219;50.396;8.546;2022-10-16T09:44:23;18.60;99.90
18189;DHT22;9219;50.396;8.546;2022-10-16T09:47:02;18.60;99.90
18189;DHT22;9219;50.396;8.546;2022-10-16T09:49:31;18.80;99.90
18189;DHT22;9219;50.396;8.546;2022-10-16T09:52:10;18.80;99.90
18189;DHT22;9219;50.396;8.546;2022-10-16T09:54:52;19.00;99.90
18189;DHT22;9219;50.396;8.546;2022-10-16T10:00:18;19.00;99.90
18189;DHT22;9219;50.396;8.546;2022-10-16T10:02:47;18.70;99.90
18189;DHT22;9219;50.396;8.546;2022-10-16T10:05:34;18.70;99.90
18189;DHT22;9219;50.396;8.546;2022-10-16T10:08:04;18.70;99.90
18189;DHT22;9219;50.396;8.546;2022-10-16T10:10:34;18.60;99.90
18189;DHT22;9219;50.396;8.546;2022-10-16T10:13:14;18.70;99.90
18189;DHT22;9219;50.396;8.546;2022-10-16T10:15:46;18.80;99.90
18189;DHT22;9219;50.396;8.546;2022-10-16T10:23:22;19.00;99.90
18189;DHT22;9219;50.396;8.546;2022-10-16T10:25:54;19.00;99.90
18189;DHT22;9219;50.396;8.546;2022-10-16T10:28:35;19.10;99.90
18189;DHT22;9219;50.396;8.546;2022-10-16T10:31:12;19.20;99.90
18189;DHT22;9219;50.396;8.546;2022-10-16T10:33:49;19.30;99.90
18189;DHT22;9219;50.396;8.546;2022-10-16T10:36:32;19.30;99.90
18189;DHT22;9219;50.396;8.546;2022-10-16T10:39:11;19.40;99.90
18189;DHT22;9219;50.396;8.546;2022-10-16T10:47:19;19.70;99.90
18189;DHT22;9219;50.396;8.546;2022-10-16T10:50:02;19.40;99.90
18189;DHT22;9219;50.396;8.546;2022-10-16T10:53:19;19.50;99.90
18189;DHT22;9219;50.396;8.546;2022-10-16T10:55:57;19.80;99.90
18189;DHT22;9219;50.396;8.546;2022-10-16T11:01:32;19.60;99.90
18189;DHT22;9219;50.396;8.546;2022-10-16T11:04:28;19.60;99.90
18189;DHT22;9219;50.396;8.546;2022-10-16T11:12:08;19.90;99.90
18189;DHT22;9219;50.396;8.546;2022-10-16T11:14:48;20.10;99.90
18189;DHT22;9219;50.396;8.546;2022-10-16T11:17:23;20.20;99.90
18189;DHT22;9219;50.396;8.546;2022-10-16T11:20:00;20.20;99.90
18189;DHT22;9219;50.396;8.546;2022-10-16T11:22:35;20.60;99.90
18189;DHT22;9219;50.396;8.546;2022-10-16T11:25:13;20.80;99.90
18189;DHT22;9219;50.396;8.546;2022-10-16T11:27:49;20.80;99.90
18189;DHT22;9219;50.396;8.546;2022-10-16T11:35:41;20.90;99.90
18189;DHT22;9219;50.396;8.546;2022-10-16T11:38:22;20.90;99.90
18189;DHT22;9219;50.396;8.546;2022-10-16T11:41:00;21.00;99.90
18189;DHT22;9219;50.396;8.546;2022-10-16T11:43:35;21.00;99.90
18189;DHT22;9219;50.396;8.546;2022-10-16T11:46:10;21.20;99.90
18189;DHT22;9219;50.396;8.546;2022-10-16T11:48:45;21.00;99.90
18189;DHT22;9219;50.396;8.546;2022-10-16T11:51:20;21.20;99.90
18189;DHT22;9219;50.396;8.546;2022-10-16T11:54:18;21.20;99.90
18189;DHT22;9219;50.396;8.546;2022-10-16T11:56:51;21.20;99.90
18189;DHT22;9219;50.396;8.546;2022-10-16T11:59:26;21.50;99.90
18189;DHT22;9219;50.396;8.546;2022-10-16T12:02:07;21.60;99.90
18189;DHT22;9219;50.396;8.546;2022-10-16T12:04:48;21.20;99.90
18189;DHT22;9219;50.396;8.546;2022-10-16T12:07:34;21.30;99.90
18189;DHT22;9219;50.396;8.546;2022-10-16T12:10:21;21.50;99.90
18189;DHT22;9219;50.396;8.546;2022-10-16T12:21:45;21.50;99.90
18189;DHT22;9219;50.396;8.546;2022-10-16T12:24:32;21.60;99.90
18189;DHT22;9219;50.396;8.546;2022-10-16T12:27:20;21.60;99.90
18189;DHT22;9219;50.396;8.546;2022-10-16T12:29:56;21.60;99.90
18189;DHT22;9219;50.396;8.546;2022-10-16T12:32:32;21.80;99.90
18189;DHT22;9219;50.396;8.546;2022-10-16T12:35:20;22.10;99.90
18189;DHT22;9219;50.396;8.546;2022-10-16T12:38:19;22.10;99.90
18189;DHT22;9219;50.396;8.546;2022-10-16T12:46:56;21.70;99.90
18189;DHT22;9219;50.396;8.546;2022-10-16T12:49:31;21.60;99.90
18189;DHT22;9219;50.396;8.546;2022-10-16T12:52:03;21.80;99.90
18189;DHT22;9219;50.396;8.546;2022-10-16T12:54:37;21.70;99.90
18189;DHT22;9219;50.396;8.546;2022-10-16T12:57:31;21.40;99.90
18189;DHT22;9219;50.396;8.546;2022-10-16T13:00:13;21.30;99.90
18189;DHT22;9219;50.396;8.546;2022-10-16T13:11:38;21.50;99.90
18189;DHT22;9219;50.396;8.546;2022-10-16T13:17:56;21.40;99.90
18189;DHT22;9219;50.396;8.546;2022-10-16T13:21:01;21.40;99.90
18189;DHT22;9219;50.396;8.546;2022-10-16T13:23:36;21.10;99.90
18189;DHT22;9219;50.396;8.546;2022-10-16T13:26:19;20.90;99.90
18189;DHT22;9219;50.396;8.546;2022-10-16T13:33:33;21.10;99.90
18189;DHT22;9219;50.396;8.546;2022-10-16T13:36:04;21.00;99.90
18189;DHT22;9219;50.396;8.546;2022-10-16T13:38:36;21.10;99.90
18189;DHT22;9219;50.396;8.546;2022-10-16T13:41:15;21.10;99.90
18189;DHT22;9219;50.396;8.546;2022-10-16T13:43:46;21.20;99.90
18189;DHT22;9219;50.396;8.546;2022-10-16T13:46:18;21.30;99.90
18189;DHT22;9219;50.396;8.546;2022-10-16T13:48:58;21.50;99.90
18189;DHT22;9219;50.396;8.546;2022-10-16T13:54:11;21.50;99.90
18189;DHT22;9219;50.396;8.546;2022-10-16T13:56:41;21.30;99.90
18189;DHT22;9219;50.396;8.546;2022-10-16T13:59:24;21.30;99.90
18189;DHT22;9219;50.396;8.546;2022-10-16T14:01:56;21.30;99.90
18189;DHT22;9219;50.396;8.546;2022-10-16T14:04:29;21.40;99.90
18189;DHT22;9219;50.396;8.546;2022-10-16T14:07:01;21.60;99.90
18189;DHT22;9219;50.396;8.546;2022-10-16T14:09:34;21.90;99.90
18189;DHT22;9219;50.396;8.546;2022-10-16T14:14:48;21.80;99.90
18189;DHT22;9219;50.396;8.546;2022-10-16T14:17:22;21.20;99.90
18189;DHT22;9219;50.396;8.546;2022-10-16T14:19:54;21.10;99.90
18189;DHT22;9219;50.396;8.546;2022-10-16T14:22:35;21.10;99.90
18189;DHT22;9219;50.396;8.546;2022-10-16T14:25:23;21.20;99.90
18189;DHT22;9219;50.396;8.546;2022-10-16T14:27:59;21.10;99.90
18189;DHT22;9219;50.396;8.546;2022-10-16T14:30:35;21.10;99.90
18189;DHT22;9219;50.396;8.546;2022-10-16T14:40:51;20.90;99.90
18189;DHT22;9219;50.396;8.546;2022-10-16T14:43:37;20.80;99.90
18189;DHT22;9219;50.396;8.546;2022-10-16T14:46:11;20.80;99.90
18189;DHT22;9219;50.396;8.546;2022-10-16T14:48:43;20.80;99.90
18189;DHT22;9219;50.396;8.546;2022-10-16T14:51:17;20.70;99.90
18189;DHT22;9219;50.396;8.546;2022-10-16T14:53:51;20.70;99.90
18189;DHT22;9219;50.396;8.546;2022-10-16T14:56:40;20.70;99.90
18189;DHT22;9219;50.396;8.546;2022-10-16T15:04:20;20.80;99.90
18189;DHT22;9219;50.396;8.546;2022-10-16T15:06:49;20.70;99.90
18189;DHT22;9219;50.396;8.546;2022-10-16T15:09:21;20.70;99.90
18189;DHT22;9219;50.396;8.546;2022-10-16T15:11:51;20.70;99.90
18189;DHT22;9219;50.396;8.546;2022-10-16T15:14:21;20.80;99.90
18189;DHT22;9219;50.396;8.546;2022-10-16T15:16:51;20.70;99.90
18189;DHT22;9219;50.396;8.546;2022-10-16T15:19:25;20.80;99.90
18189;DHT22;9219;50.396;8.546;2022-10-16T15:26:49;20.90;99.90
18189;DHT22;9219;50.396;8.546;2022-10-16T15:29:22;20.90;99.90
18189;DHT22;9219;50.396;8.546;2022-10-16T15:31:59;20.60;99.90
18189;DHT22;9219;50.396;8.546;2022-10-16T15:34:29;20.60;99.90
18189;DHT22;9219;50.396;8.546;2022-10-16T15:37:03;20.50;99.90
18189;DHT22;9219;50.396;8.546;2022-10-16T15:39:36;20.50;99.90
18189;DHT22;9219;50.396;8.546;2022-10-16T15:42:10;20.50;99.90
18189;DHT22;9219;50.396;8.546;2022-10-16T15:50:39;20.50;99.90
18189;DHT22;9219;50.396;8.546;2022-10-16T15:53:15;20.70;99.90
18189;DHT22;9219;50.396;8.546;2022-10-16T15:56:02;20.70;99.90
18189;DHT22;9219;50.396;8.546;2022-10-16T15:58:36;20.50;99.90
18189;DHT22;9219;50.396;8.546;2022-10-16T16:01:08;20.50;99.90
18189;DHT22;9219;50.396;8.546;2022-10-16T16:03:41;20.30;99.90
18189;DHT22;9219;50.396;8.546;2022-10-16T16:06:16;20.20;99.90
18189;DHT22;9219;50.396;8.546;2022-10-16T16:08:48;20.10;99.90
18189;DHT22;9219;50.396;8.546;2022-10-16T16:16:41;19.90;99.90
18189;DHT22;9219;50.396;8.546;2022-10-16T16:19:14;19.90;99.90
18189;DHT22;9219;50.396;8.546;2022-10-16T16:21:53;19.90;99.90
18189;DHT22;9219;50.396;8.546;2022-10-16T16:24:29;19.90;99.90
18189;DHT22;9219;50.396;8.546;2022-10-16T16:27:03;20.00;99.90
18189;DHT22;9219;50.396;8.546;2022-10-16T16:29:41;19.90;99.90
18189;DHT22;9219;50.396;8.546;2022-10-16T16:32:24;19.90;99.90
18189;DHT22;9219;50.396;8.546;2022-10-16T16:34:57;19.90;99.90
18189;DHT22;9219;50.396;8.546;2022-10-16T16:42:38;19.80;99.90
18189;DHT22;9219;50.396;8.546;2022-10-16T16:45:11;19.60;99.90
18189;DHT22;9219;50.396;8.546;2022-10-16T16:47:40;19.40;99.90
18189;DHT22;9219;50.396;8.546;2022-10-16T16:50:09;19.40;99.90
18189;DHT22;9219;50.396;8.546;2022-10-16T16:52:39;19.30;99.90
18189;DHT22;9219;50.396;8.546;2022-10-16T16:55:08;19.40;99.90
18189;DHT22;9219;50.396;8.546;2022-10-16T16:57:41;19.40;99.90
18189;DHT22;9219;50.396;8.546;2022-10-16T17:05:22;19.40;99.90
18189;DHT22;9219;50.396;8.546;2022-10-16T17:07:57;19.10;99.90
18189;DHT22;9219;50.396;8.546;2022-10-16T17:10:33;19.00;99.90
18189;DHT22;9219;50.396;8.546;2022-10-16T17:13:04;19.00;99.90
18189;DHT22;9219;50.396;8.546;2022-10-16T17:15:35;18.90;99.90
18189;DHT22;9219;50.396;8.546;2022-10-16T17:18:07;18.60;99.90
18189;DHT22;9219;50.396;8.546;2022-10-16T17:20:38;18.40;99.90
18189;DHT22;9219;50.396;8.546;2022-10-16T17:23:13;18.30;99.90
18189;DHT22;9219;50.396;8.546;2022-10-16T17:29:50;18.40;99.90
18189;DHT22;9219;50.396;8.546;2022-10-16T17:32:24;18.30;99.90
18189;DHT22;9219;50.396;8.546;2022-10-16T17:34:58;18.60;99.90
18189;DHT22;9219;50.396;8.546;2022-10-16T17:37:29;18.40;99.90
18189;DHT22;9219;50.396;8.546;2022-10-16T17:40:00;18.20;99.90
18189;DHT22;9219;50.396;8.546;2022-10-16T17:42:30;18.10;99.90
18189;DHT22;9219;50.396;8.546;2022-10-16T17:45:01;18.00;99.90
18189;DHT22;9219;50.396;8.546;2022-10-16T17:47:33;17.90;99.90
18189;DHT22;9219;50.396;8.546;2022-10-16T17:55:25;18.10;99.90
18189;DHT22;9219;50.396;8.546;2022-10-16T17:57:56;18.30;99.90
18189;DHT22;9219;50.396;8.546;2022-10-16T18:00:28;18.20;99.90
18189;DHT22;9219;50.396;8.546;2022-10-16T18:03:04;18.10;99.90
18189;DHT22;9219;50.396;8.546;2022-10-16T18:05:40;18.10;99.90
18189;DHT22;9219;50.396;8.546;2022-10-16T18:08:16;18.40;99.90
18189;DHT22;9219;50.396;8.546;2022-10-16T18:10:52;18.60;99.90
18189;DHT22;9219;50.396;8.546;2022-10-16T18:18:30;18.70;99.90
18189;DHT22;9219;50.396;8.546;2022-10-16T18:21:00;18.60;99.90
18189;DHT22;9219;50.396;8.546;2022-10-16T18:23:34;18.50;99.90
18189;DHT22;9219;50.396;8.546;2022-10-16T18:26:10;18.40;99.90
18189;DHT22;9219;50.396;8.546;2022-10-16T18:28:41;18.10;99.90
18189;DHT22;9219;50.396;8.546;2022-10-16T18:31:18;18.20;99.90
18189;DHT22;9219;50.396;8.546;2022-10-16T18:33:49;18.00;99.90
18189;DHT22;9219;50.396;8.546;2022-10-16T18:36:22;17.80;99.90
18189;DHT22;9219;50.396;8.546;2022-10-16T18:43:55;17.50;99.90
18189;DHT22;9219;50.396;8.546;2022-10-16T18:46:24;18.00;99.90
18189;DHT22;9219;50.396;8.546;2022-10-16T18:48:54;18.10;99.90
18189;DHT22;9219;50.396;8.546;2022-10-16T18:51:24;18.10;99.90
18189;DHT22;9219;50.396;8.546;2022-10-16T18:53:53;18.30;99.90
18189;DHT22;9219;50.396;8.546;2022-10-16T18:56:23;18.30;99.90
18189;DHT22;9219;50.396;8.546;2022-10-16T18:58:58;18.20;99.90
18189;DHT22;9219;50.396;8.546;2022-10-16T19:01:31;18.20;99.90
18189;DHT22;9219;50.396;8.546;2022-10-16T19:09:12;17.90;99.90
18189;DHT22;9219;50.396;8.546;2022-10-16T19:11:44;18.30;99.90
18189;DHT22;9219;50.396;8.546;2022-10-16T19:14:19;18.40;99.90
18189;DHT22;9219;50.396;8.546;2022-10-16T19:16:56;18.50;99.90
18189;DHT22;9219;50.396;8.546;2022-10-16T19:19:28;18.50;99.90
18189;DHT22;9219;50.396;8.546;2022-10-16T19:21:59;18.50;99.90
18189;DHT22;9219;50.396;8.546;2022-10-16T19:24:46;18.50;99.90
18189;DHT22;9219;50.396;8.546;2022-10-16T19:27:15;18.40;99.90
18189;DHT22;9219;50.396;8.546;2022-10-16T19:32:47;18.40;99.90
18189;DHT22;9219;50.396;8.546;2022-10-16T19:35:22;18.40;99.90
18189;DHT22;9219;50.396;8.546;2022-10-16T19:37:53;18.40;99.90
18189;DHT22;9219;50.396;8.546;2022-10-16T19:40:25;18.40;99.90
18189;DHT22;9219;50.396;8.546;2022-10-16T19:42:55;18.50;99.90
18189;DHT22;9219;50.396;8.546;2022-10-16T19:45:29;18.60;99.90
18189;DHT22;9219;50.396;8.546;2022-10-16T19:48:06;18.60;99.90
18189;DHT22;9219;50.396;8.546;2022-10-16T19:50:44;18.50;99.90
18189;DHT22;9219;50.396;8.546;2022-10-16T19:57:34;18.60;99.90
18189;DHT22;9219;50.396;8.546;2022-10-16T20:00:04;18.60;99.90
18189;DHT22;9219;50.396;8.546;2022-10-16T20:02:35;18.50;99.90
18189;DHT22;9219;50.396;8.546;2022-10-16T20:05:05;18.50;99.90
18189;DHT22;9219;50.396;8.546;2022-10-16T20:07:37;18.70;99.90
18189;DHT22;9219;50.396;8.546;2022-10-16T20:10:05;18.70;99.90
18189;DHT22;9219;50.396;8.546;2022-10-16T20:12:36;18.60;99.90
18189;DHT22;9219;50.396;8.546;2022-10-16T20:20:11;18.50;99.90
18189;DHT22;9219;50.396;8.546;2022-10-16T20:22:40;18.60;99.90
18189;DHT22;9219;50.396;8.546;2022-10-16T20:25:08;18.60;99.90
18189;DHT22;9219;50.396;8.546;2022-10-16T20:27:44;18.60;99.90
18189;DHT22;9219;50.396;8.546;2022-10-16T20:30:15;18.60;99.90
18189;DHT22;9219;50.396;8.546;2022-10-16T20:32:47;18.60;99.90
18189;DHT22;9219;50.396;8.546;2022-10-16T20:35:21;18.50;99.90